Time;durP1;ratioP1;P1;durP2;ratioP2;P2;SDS_P1;SDS_P2;PMS_P1;PMS_P2;Temp;Humidity;BMP_temperature;BMP_pressure;BME280_temperature;BME280_humidity;BME280_pressure;Samples;Min_cycle;Max_cycle;Signal;HPM_P1;HPM_P2
2023/07/13 00:02:30;;;;;;;20.38;14.32;;;;;;;-140.66;100.00;55571.53;5115946;28;20036;-73
2023/07/13 00:05:16;;;;;;;19.70;14.38;;;;;;;-140.66;100.00;55571.53;5114133;28;20355;-74
2023/07/13 00:08:01;;;;;;;19.25;14.20;;;;;;;-140.66;100.00;55571.53;5116362;28;20031;-72
2023/07/13 00:10:48;;;;;;;23.45;14.80;;;;;;;-140.66;100.00;55571.53;5115659;28;20042;-73
2023/07/13 00:13:34;;;;;;;18.13;14.65;;;;;;;-140.66;100.00;55571.53;5114874;28;20026;-74
2023/07/13 00:16:20;;;;;;;16.05;13.98;;;;;;;-140.66;100.00;55571.53;5115291;28;20159;-74
2023/07/13 00:19:06;;;;;;;18.83;14.13;;;;;;;-140.66;100.00;55571.53;5114718;28;20074;-74
2023/07/13 00:21:55;;;;;;;20.02;14.00;;;;;;;-140.66;100.00;55571.53;5100871;28;20125;-73
2023/07/13 00:24:44;;;;;;;23.27;13.88;;;;;;;-140.66;100.00;55571.53;5100524;28;20092;-74
2023/07/13 00:27:31;;;;;;;17.55;14.30;;;;;;;-140.66;100.00;55571.53;5114866;28;20051;-74
2023/07/13 00:30:17;;;;;;;20.13;14.52;;;;;;;-140.66;100.00;55571.53;5113947;28;20103;-74
2023/07/13 00:33:03;;;;;;;20.20;14.63;;;;;;;-140.66;100.00;55571.53;5115208;28;20073;-74
2023/07/13 00:35:49;;;;;;;25.23;17.27;;;;;;;-140.66;100.00;55571.53;5115248;28;20024;-74
2023/07/13 00:38:36;;;;;;;28.13;17.73;;;;;;;-140.66;100.00;55571.53;5115601;28;20024;-73
2023/07/13 00:41:22;;;;;;;26.30;18.20;;;;;;;-140.66;100.00;55571.53;5100639;28;20016;-74
2023/07/13 00:44:13;;;;;;;27.75;17.52;;;;;;;-140.66;100.00;55571.53;5099472;28;20035;-74
2023/07/13 00:46:59;;;;;;;23.58;16.40;;;;;;;-140.66;100.00;55571.53;5115153;28;20311;-73
2023/07/13 00:49:45;;;;;;;24.00;15.95;;;;;;;-140.66;100.00;55571.53;5115174;28;20031;-73
2023/07/13 00:52:31;;;;;;;21.67;14.98;;;;;;;-140.66;100.00;55571.53;5100617;28;20467;-74
2023/07/13 00:55:17;;;;;;;21.65;14.70;;;;;;;-140.66;100.00;55571.53;5114412;28;20435;-74
2023/07/13 00:58:04;;;;;;;20.02;14.30;;;;;;;-140.66;100.00;55571.53;5114517;28;20028;-73
2023/07/13 01:00:51;;;;;;;21.98;14.93;;;;;;;-140.66;100.00;55571.53;5113300;28;20380;-74
2023/07/13 01:03:38;;;;;;;19.45;13.90;;;;;;;-140.66;100.00;55571.53;5114740;28;20031;-74
2023/07/13 01:06:23;;;;;;;20.17;14.85;;;;;;;-140.66;100.00;55571.53;5099829;28;20396;-74
2023/07/13 01:09:10;;;;;;;20.00;15.05;;;;;;;-140.66;100.00;55571.53;5114246;28;20032;-73
2023/07/13 01:11:56;;;;;;;23.65;14.23;;;;;;;-140.66;100.00;55571.53;5114449;28;20031;-74
2023/07/13 01:14:42;;;;;;;17.98;14.50;;;;;;;-140.66;100.00;55571.53;5099349;28;20096;-74
2023/07/13 01:17:29;;;;;;;21.33;14.57;;;;;;;-140.66;100.00;55571.53;5114233;28;20028;-73
2023/07/13 01:20:15;;;;;;;20.88;14.48;;;;;;;-140.66;100.00;55571.53;5113757;28;20044;-73
2023/07/13 01:23:00;;;;;;;18.55;13.63;;;;;;;-140.66;100.00;55571.53;5114655;28;20020;-73
2023/07/13 01:25:46;;;;;;;20.25;13.95;;;;;;;-140.66;100.00;55571.53;5114224;28;20034;-73
2023/07/13 01:28:36;;;;;;;19.75;14.68;;;;;;;-140.66;100.00;55571.53;5114575;28;20031;-73
2023/07/13 01:31:22;;;;;;;18.48;14.75;;;;;;;-140.66;100.00;55571.53;5114225;28;20031;-73
2023/07/13 01:34:08;;;;;;;21.02;14.57;;;;;;;-140.66;100.00;55571.53;5113955;28;20110;-74
2023/07/13 01:36:53;;;;;;;20.50;15.50;;;;;;;-140.66;100.00;55571.53;5114600;28;20042;-74
2023/07/13 01:39:39;;;;;;;19.00;15.50;;;;;;;-140.66;100.00;55571.53;5098802;28;20031;-74
2023/07/13 01:42:25;;;;;;;20.23;15.73;;;;;;;-140.66;100.00;55571.53;5115120;28;20059;-74
2023/07/13 01:45:11;;;;;;;20.85;14.80;;;;;;;-140.66;100.00;55571.53;5099620;28;20024;-74
2023/07/13 01:47:57;;;;;;;17.63;14.82;;;;;;;-140.66;100.00;55571.53;5115635;28;20081;-74
2023/07/13 01:50:43;;;;;;;18.63;15.25;;;;;;;-140.66;100.00;55571.53;5118556;28;20344;-74
2023/07/13 01:53:29;;;;;;;21.40;15.73;;;;;;;-140.66;100.00;55571.53;5118898;28;20511;-73
2023/07/13 01:56:15;;;;;;;18.73;16.10;;;;;;;-140.66;100.00;55571.53;5118371;28;20051;-73
2023/07/13 01:59:00;;;;;;;23.48;16.20;;;;;;;-140.66;100.00;55571.53;5117998;28;20020;-72
2023/07/13 02:01:46;;;;;;;26.73;16.38;;;;;;;-140.66;100.00;55571.53;5117955;28;20020;-73
2023/07/13 02:04:32;;;;;;;24.95;17.55;;;;;;;-140.66;100.00;55571.53;5118220;28;20019;-72
2023/07/13 02:07:18;;;;;;;23.67;16.33;;;;;;;-140.66;100.00;55571.53;5118048;28;20093;-72
2023/07/13 02:10:05;;;;;;;24.45;16.13;;;;;;;-140.66;100.00;55571.53;5117792;28;20032;-74
2023/07/13 02:12:51;;;;;;;22.48;16.55;;;;;;;-140.66;100.00;55571.53;5118665;28;20435;-73
2023/07/13 02:15:40;;;;;;;19.95;15.48;;;;;;;-140.66;100.00;55571.53;5117187;28;20105;-73
2023/07/13 02:18:26;;;;;;;26.27;16.40;;;;;;;-140.66;100.00;55571.53;5117418;28;20027;-73
2023/07/13 02:21:12;;;;;;;22.50;16.33;;;;;;;-140.66;100.00;55571.53;5117512;28;20027;-73
2023/07/13 02:23:58;;;;;;;26.48;16.33;;;;;;;-140.66;100.00;55571.53;5118109;28;20024;-74
2023/07/13 02:26:44;;;;;;;20.83;15.98;;;;;;;-140.66;100.00;55571.53;5116742;28;20113;-73
2023/07/13 02:29:30;;;;;;;22.90;15.70;;;;;;;-140.66;100.00;55571.53;5117034;28;20024;-73
2023/07/13 02:32:15;;;;;;;24.55;15.55;;;;;;;-140.66;100.00;55571.53;5118051;28;20039;-73
2023/07/13 02:35:02;;;;;;;23.17;15.07;;;;;;;-140.66;100.00;55571.53;5117111;28;20082;-73
2023/07/13 02:37:48;;;;;;;22.60;15.13;;;;;;;-140.66;100.00;55571.53;5102970;28;20042;-73
2023/07/13 02:40:35;;;;;;;21.08;15.45;;;;;;;-140.66;100.00;55571.53;5117102;28;20037;-73
2023/07/13 02:43:21;;;;;;;22.27;15.07;;;;;;;-140.66;100.00;55571.53;5117777;28;20039;-72
2023/07/13 02:46:07;;;;;;;31.67;16.00;;;;;;;-140.66;100.00;55571.53;5117324;28;20085;-73
2023/07/13 02:48:53;;;;;;;21.88;15.32;;;;;;;-140.66;100.00;55571.53;5117524;28;20031;-73
2023/07/13 02:51:39;;;;;;;24.55;15.10;;;;;;;-140.66;100.00;55571.53;5117011;28;20024;-72
2023/07/13 02:54:25;;;;;;;20.90;15.70;;;;;;;-140.66;100.00;55571.53;5116568;28;20023;-73
2023/07/13 02:57:10;;;;;;;24.50;15.77;;;;;;;-140.66;100.00;55571.53;5117153;28;20031;-72
2023/07/13 02:59:56;;;;;;;19.75;15.25;;;;;;;-140.66;100.00;55571.53;5115838;28;20028;-73
2023/07/13 03:02:42;;;;;;;28.65;15.65;;;;;;;-140.66;100.00;55571.53;5117048;28;20363;-73
2023/07/13 03:05:28;;;;;;;22.80;15.48;;;;;;;-140.66;100.00;55571.53;5115611;28;20386;-74
2023/07/13 03:08:13;;;;;;;18.67;13.95;;;;;;;-140.66;100.00;55571.53;5115316;28;20038;-75
2023/07/13 03:11:05;;;;;;;20.15;14.40;;;;;;;-140.66;100.00;55571.53;5116090;28;20077;-74
2023/07/13 03:13:51;;;;;;;20.25;14.30;;;;;;;-140.66;100.00;55571.53;5116659;28;20509;-73
2023/07/13 03:16:37;;;;;;;20.38;14.32;;;;;;;-140.66;100.00;55571.53;5117459;28;20027;-73
2023/07/13 03:19:23;;;;;;;20.27;14.80;;;;;;;-140.66;100.00;55571.53;5116687;28;20430;-73
2023/07/13 03:22:08;;;;;;;21.98;13.50;;;;;;;-140.66;100.00;55571.53;5117253;28;20038;-72
2023/07/13 03:24:55;;;;;;;19.80;13.98;;;;;;;-140.66;100.00;55571.53;5116035;28;20023;-73
2023/07/13 03:27:40;;;;;;;21.13;14.68;;;;;;;-140.66;100.00;55571.53;5117071;28;20035;-72
2023/07/13 03:30:26;;;;;;;17.38;13.82;;;;;;;-140.66;100.00;55571.53;5117165;28;20039;-72
2023/07/13 03:33:12;;;;;;;19.27;13.85;;;;;;;-140.66;100.00;55571.53;5103551;28;20031;-74
2023/07/13 03:35:58;;;;;;;19.73;14.70;;;;;;;-140.66;100.00;55571.53;5117400;28;20038;-74
2023/07/13 03:38:44;;;;;;;20.27;13.95;;;;;;;-140.66;100.00;55571.53;5117143;28;20359;-73
2023/07/13 03:41:31;;;;;;;18.83;14.20;;;;;;;-140.66;100.00;55571.53;5116278;28;20024;-73
2023/07/13 03:44:17;;;;;;;18.63;14.40;;;;;;;-140.66;100.00;55571.53;5116180;28;20398;-74
2023/07/13 03:47:05;;;;;;;19.98;14.38;;;;;;;-140.66;100.00;55571.53;5102163;28;20023;-74
2023/07/13 03:49:51;;;;;;;19.70;13.98;;;;;;;-140.66;100.00;55571.53;5116388;28;20028;-74
2023/07/13 03:52:37;;;;;;;22.50;14.43;;;;;;;-140.66;100.00;55571.53;5116006;28;20082;-74
2023/07/13 03:55:23;;;;;;;21.90;14.18;;;;;;;-140.66;100.00;55571.53;5116492;28;20050;-74
2023/07/13 03:58:34;;;;;;;21.02;14.73;;;;;;;-140.66;100.00;55571.53;5115075;28;20019;-74
2023/07/13 04:01:22;;;;;;;19.70;15.00;;;;;;;-140.66;100.00;55571.53;5115895;28;20098;-73
2023/07/13 04:04:08;;;;;;;20.52;14.10;;;;;;;-140.66;100.00;55571.53;5116427;28;20023;-73
2023/07/13 04:06:53;;;;;;;20.75;14.13;;;;;;;-140.66;100.00;55571.53;5116313;28;20089;-74
2023/07/13 04:09:39;;;;;;;21.58;14.38;;;;;;;-140.66;100.00;55571.53;5115627;28;20020;-73
2023/07/13 04:12:25;;;;;;;18.40;14.32;;;;;;;-140.66;100.00;55571.53;5115337;28;20451;-73
2023/07/13 04:15:10;;;;;;;20.30;14.07;;;;;;;-140.66;100.00;55571.53;5115968;28;20045;-74
2023/07/13 04:17:56;;;;;;;21.58;14.18;;;;;;;-140.66;100.00;55571.53;5115917;28;20061;-73
2023/07/13 04:20:42;;;;;;;20.33;14.75;;;;;;;-140.66;100.00;55571.53;5113397;28;20126;-74
2023/07/13 04:23:28;;;;;;;21.58;14.70;;;;;;;-140.66;100.00;55571.53;5100896;28;20108;-73
2023/07/13 04:26:14;;;;;;;22.13;14.63;;;;;;;-140.66;100.00;55571.53;5114176;28;20065;-72
2023/07/13 04:28:59;;;;;;;20.30;14.20;;;;;;;-140.66;100.00;55571.53;5114777;28;20015;-73
2023/07/13 04:31:45;;;;;;;22.48;15.05;;;;;;;-140.66;100.00;55571.53;5115420;28;20059;-73
2023/07/13 04:34:31;;;;;;;18.83;14.70;;;;;;;-140.66;100.00;55571.53;5115649;28;20038;-73
2023/07/13 04:37:16;;;;;;;19.02;14.73;;;;;;;-140.66;100.00;55571.53;5114766;28;20034;-73
2023/07/13 04:40:03;;;;;;;20.45;13.50;;;;;;;-140.66;100.00;55571.53;5099828;28;20038;-73
2023/07/13 04:42:49;;;;;;;20.48;14.20;;;;;;;-140.66;100.00;55571.53;5114902;28;20035;-73
2023/07/13 04:45:35;;;;;;;23.30;15.48;;;;;;;-140.66;100.00;55571.53;5099993;28;20091;-73
2023/07/13 04:48:21;;;;;;;21.15;15.45;;;;;;;-140.66;100.00;55571.53;5115382;28;20069;-73
2023/07/13 04:51:07;;;;;;;21.00;14.10;;;;;;;-140.66;100.00;55571.53;5114696;28;20045;-73
2023/07/13 04:53:53;;;;;;;21.05;14.55;;;;;;;-140.66;100.00;55571.53;5114232;28;20031;-74
2023/07/13 04:56:38;;;;;;;20.20;14.30;;;;;;;-140.66;100.00;55571.53;5113288;28;20019;-74
2023/07/13 04:59:24;;;;;;;22.52;15.57;;;;;;;-140.66;100.00;55571.53;5113406;28;20039;-74
2023/07/13 05:02:10;;;;;;;22.42;14.27;;;;;;;-140.66;100.00;55571.53;5115026;28;20110;-74
2023/07/13 05:04:55;;;;;;;23.42;15.13;;;;;;;-140.66;100.00;55571.53;5113513;28;20092;-73
2023/07/13 05:07:41;;;;;;;19.70;14.18;;;;;;;-140.66;100.00;55571.53;5099680;28;20027;-73
2023/07/13 05:10:27;;;;;;;24.08;15.13;;;;;;;-140.66;100.00;55571.53;5114474;28;20099;-73
2023/07/13 05:13:13;;;;;;;22.10;14.65;;;;;;;-140.66;100.00;55571.53;5114299;28;20030;-73
2023/07/13 05:16:01;;;;;;;21.52;14.98;;;;;;;-140.66;100.00;55571.53;5099794;28;20024;-74
2023/07/13 05:18:47;;;;;;;28.25;14.98;;;;;;;-140.66;100.00;55571.53;5112774;28;20051;-73
2023/07/13 05:21:33;;;;;;;22.45;15.38;;;;;;;-140.66;100.00;55571.53;5115321;28;20058;-73
2023/07/13 05:24:19;;;;;;;23.35;14.73;;;;;;;-140.66;100.00;55571.53;5118097;28;20037;-73
2023/07/13 05:27:05;;;;;;;20.00;14.13;;;;;;;-140.66;100.00;55571.53;5118763;28;20032;-74
2023/07/13 05:29:51;;;;;;;23.45;15.43;;;;;;;-140.66;100.00;55571.53;5118492;28;20023;-73
2023/07/13 05:32:37;;;;;;;19.75;14.40;;;;;;;-140.66;100.00;55571.53;5118524;28;20119;-74
2023/07/13 05:35:22;;;;;;;19.95;15.13;;;;;;;-140.66;100.00;55571.53;5104560;28;20069;-74
2023/07/13 05:38:08;;;;;;;22.13;14.55;;;;;;;-140.66;100.00;55571.53;5118888;28;20065;-74
2023/07/13 05:40:55;;;;;;;26.42;16.13;;;;;;;-140.66;100.00;55571.53;5118753;28;20024;-74
2023/07/13 05:43:41;;;;;;;20.60;14.63;;;;;;;-140.66;100.00;55571.53;5118640;28;20035;-74
2023/07/13 05:46:28;;;;;;;33.00;16.40;;;;;;;-140.66;100.00;55571.53;5118146;28;20028;-74
2023/07/13 05:49:13;;;;;;;23.65;15.48;;;;;;;-140.66;100.00;55571.53;5102566;28;20098;-74
2023/07/13 05:51:59;;;;;;;22.52;14.88;;;;;;;-140.66;100.00;55571.53;5118083;28;20027;-74
2023/07/13 05:54:45;;;;;;;24.20;15.30;;;;;;;-140.66;100.00;55571.53;5103394;28;20019;-74
2023/07/13 05:57:31;;;;;;;19.95;14.80;;;;;;;-140.66;100.00;55571.53;5117230;28;20436;-74
2023/07/13 06:00:17;;;;;;;21.55;14.57;;;;;;;-140.66;100.00;55571.53;5118038;28;20043;-74
2023/07/13 06:03:03;;;;;;;20.55;14.00;;;;;;;-140.66;100.00;55571.53;5118844;28;20031;-73
2023/07/13 06:05:49;;;;;;;22.45;13.73;;;;;;;-140.66;100.00;55571.53;5117090;28;20034;-73
2023/07/13 06:08:35;;;;;;;20.67;14.63;;;;;;;-140.66;100.00;55571.53;5118365;28;20455;-74
2023/07/13 06:11:23;;;;;;;24.23;14.98;;;;;;;-140.66;100.00;55571.53;5117592;28;20035;-74
2023/07/13 06:14:09;;;;;;;21.75;15.65;;;;;;;-140.66;100.00;55571.53;5118635;28;20130;-74
2023/07/13 06:16:55;;;;;;;15.73;13.02;;;;;;;-140.66;100.00;55571.53;5117633;28;20368;-73
2023/07/13 06:19:41;;;;;;;17.25;13.32;;;;;;;-140.66;100.00;55571.53;5116167;28;20413;-74
2023/07/13 06:22:26;;;;;;;15.82;13.23;;;;;;;-140.66;100.00;55571.53;5118081;28;20289;-74
2023/07/13 06:25:12;;;;;;;16.38;12.82;;;;;;;-140.66;100.00;55571.53;5102373;28;20175;-75
2023/07/13 06:27:58;;;;;;;17.42;12.60;;;;;;;-140.66;100.00;55571.53;5117712;28;20020;-75
2023/07/13 06:30:43;;;;;;;18.67;12.82;;;;;;;-140.66;100.00;55571.53;5102028;28;20411;-74
2023/07/13 06:33:29;;;;;;;18.65;12.52;;;;;;;-140.66;100.00;55571.53;5101513;28;20372;-75
2023/07/13 06:36:15;;;;;;;16.88;12.65;;;;;;;-140.66;100.00;55571.53;5117969;28;20024;-74
2023/07/13 06:39:01;;;;;;;14.10;11.43;;;;;;;-140.66;100.00;55571.53;5102095;28;20110;-74
2023/07/13 06:41:46;;;;;;;15.70;11.45;;;;;;;-140.66;100.00;55571.53;5103007;28;20020;-74
2023/07/13 06:44:32;;;;;;;15.40;11.65;;;;;;;-140.66;100.00;55571.53;5117217;28;20031;-74
2023/07/13 06:47:18;;;;;;;14.85;11.88;;;;;;;-140.66;100.00;55571.53;5116970;28;20058;-73
2023/07/13 06:50:04;;;;;;;15.93;12.45;;;;;;;-140.66;100.00;55571.53;5116662;28;20039;-74
2023/07/13 06:52:50;;;;;;;14.68;11.75;;;;;;;-140.66;100.00;55571.53;5117942;28;20027;-74
2023/07/13 06:55:36;;;;;;;21.55;12.55;;;;;;;-140.66;100.00;55571.53;5117077;28;20039;-74
2023/07/13 06:58:22;;;;;;;16.15;11.93;;;;;;;-140.66;100.00;55571.53;5117143;28;20363;-73
2023/07/13 07:01:09;;;;;;;15.30;11.77;;;;;;;-140.66;100.00;55571.53;5118094;28;20492;-74
2023/07/13 07:03:55;;;;;;;22.73;12.05;;;;;;;-140.66;100.00;55571.53;5103175;28;20122;-74
2023/07/13 07:06:40;;;;;;;23.60;11.65;;;;;;;-140.66;100.00;55571.53;5116422;28;20519;-75
2023/07/13 07:09:26;;;;;;;14.43;11.65;;;;;;;-140.66;100.00;55571.53;5102264;28;20035;-73
2023/07/13 07:12:12;;;;;;;14.75;12.23;;;;;;;-140.66;100.00;55571.53;5116726;28;20038;-74
2023/07/13 07:14:57;;;;;;;15.48;12.05;;;;;;;-140.66;100.00;55571.53;5116820;28;20106;-74
2023/07/13 07:17:43;;;;;;;15.10;11.80;;;;;;;-140.66;100.00;55571.53;5117476;28;20444;-74
2023/07/13 07:20:30;;;;;;;14.80;11.85;;;;;;;-140.66;100.00;55571.53;5115876;28;20051;-74
2023/07/13 07:23:16;;;;;;;17.05;12.20;;;;;;;-140.66;100.00;55571.53;5116422;28;20039;-73
2023/07/13 07:26:02;;;;;;;17.35;12.52;;;;;;;-140.66;100.00;55571.53;5117815;28;20051;-74
2023/07/13 07:28:48;;;;;;;19.33;12.80;;;;;;;-140.66;100.00;55571.53;5116159;28;20038;-74
2023/07/13 07:31:34;;;;;;;16.23;12.40;;;;;;;-140.66;100.00;55571.53;5116407;28;20050;-74
2023/07/13 07:34:20;;;;;;;23.35;13.07;;;;;;;-140.66;100.00;55571.53;5116266;28;20028;-74
2023/07/13 07:37:05;;;;;;;18.08;13.02;;;;;;;-140.66;100.00;55571.53;5117134;28;20024;-73
2023/07/13 07:39:51;;;;;;;22.02;13.05;;;;;;;-140.66;100.00;55571.53;5115805;28;20399;-73
2023/07/13 07:42:37;;;;;;;20.13;12.20;;;;;;;-140.66;100.00;55571.53;5116170;28;20027;-75
2023/07/13 07:45:23;;;;;;;13.68;11.68;;;;;;;-140.66;100.00;55571.53;5115461;28;20049;-73
2023/07/13 07:48:09;;;;;;;20.63;12.57;;;;;;;-140.66;100.00;55571.53;5116442;28;20019;-73
2023/07/13 07:50:55;;;;;;;21.85;12.88;;;;;;;-140.66;100.00;55571.53;5099983;28;20028;-74
2023/07/13 07:53:41;;;;;;;16.52;12.27;;;;;;;-140.66;100.00;55571.53;5114970;28;20023;-74
2023/07/13 07:56:27;;;;;;;13.45;11.32;;;;;;;-140.66;100.00;55571.53;5114704;28;20032;-73
2023/07/13 07:59:13;;;;;;;14.20;12.05;;;;;;;-140.66;100.00;55571.53;5116216;28;20020;-74
2023/07/13 08:01:59;;;;;;;16.88;11.57;;;;;;;-140.66;100.00;55571.53;5114620;28;20038;-73
2023/07/13 08:04:44;;;;;;;21.75;12.02;;;;;;;-140.66;100.00;55571.53;5114777;28;20359;-74
2023/07/13 08:07:31;;;;;;;26.40;12.05;;;;;;;-140.66;100.00;55571.53;5100847;28;20455;-74
2023/07/13 08:10:17;;;;;;;16.55;11.63;;;;;;;-140.66;100.00;55571.53;5115545;28;20023;-73
2023/07/13 08:13:02;;;;;;;15.30;11.57;;;;;;;-140.66;100.00;55571.53;5115927;28;20089;-74
2023/07/13 08:15:49;;;;;;;15.35;11.07;;;;;;;-140.66;100.00;55571.53;5114729;28;20027;-74
2023/07/13 08:18:35;;;;;;;17.52;11.07;;;;;;;-140.66;100.00;55571.53;5114730;28;20346;-73
2023/07/13 08:21:21;;;;;;;15.60;11.60;;;;;;;-140.66;100.00;55571.53;5115116;28;20086;-73
2023/07/13 08:24:07;;;;;;;15.32;11.27;;;;;;;-140.66;100.00;55571.53;5114669;28;20392;-74
2023/07/13 08:26:53;;;;;;;18.98;11.85;;;;;;;-140.66;100.00;55571.53;5115228;28;20023;-74
2023/07/13 08:29:39;;;;;;;14.77;12.20;;;;;;;-140.66;100.00;55571.53;5100653;28;20451;-74
2023/07/13 08:32:25;;;;;;;14.77;11.13;;;;;;;-140.66;100.00;55571.53;5115446;28;20019;-73
2023/07/13 08:35:11;;;;;;;11.27;9.98;;;;;;;-140.66;100.00;55571.53;5115069;28;20020;-73
2023/07/13 08:37:56;;;;;;;15.70;11.00;;;;;;;-140.66;100.00;55571.53;5113421;28;20039;-74
2023/07/13 08:40:43;;;;;;;22.63;11.55;;;;;;;-140.66;100.00;55571.53;5114315;28;20444;-74
2023/07/13 08:43:34;;;;;;;15.07;10.80;;;;;;;-140.66;100.00;55571.53;5115649;28;20023;-74
2023/07/13 08:46:34;;;;;;;12.15;10.85;;;;;;;-140.66;100.00;55571.53;5115507;28;20440;-73
2023/07/13 08:49:23;;;;;;;14.50;10.63;;;;;;;-140.66;100.00;55571.53;5119826;28;20027;-75
2023/07/13 08:52:20;;;;;;;20.08;10.68;;;;;;;-140.66;100.00;55571.53;5117948;28;20055;-74
2023/07/13 08:55:20;;;;;;;20.98;11.52;;;;;;;-140.66;100.00;55571.53;5117243;28;20023;-74
2023/07/13 08:58:13;;;;;;;20.58;12.13;;;;;;;-140.66;100.00;55571.53;5121328;28;20488;-74
2023/07/13 09:01:10;;;;;;;12.88;10.45;;;;;;;-140.66;100.00;55571.53;5125728;28;20020;-73
2023/07/13 09:04:16;;;;;;;13.75;10.07;;;;;;;-140.66;100.00;55571.53;5109826;28;20428;-74
2023/07/13 09:07:16;;;;;;;14.77;9.82;;;;;;;-140.66;100.00;55571.53;5122028;28;20084;-74
2023/07/13 09:10:13;;;;;;;14.07;9.77;;;;;;;-140.66;100.00;55571.53;5124390;28;20028;-74
2023/07/13 09:13:20;;;;;;;20.27;9.70;;;;;;;-140.66;100.00;55571.53;5123558;28;20051;-73
2023/07/13 09:16:07;;;;;;;13.43;9.30;;;;;;;-140.66;100.00;55571.53;5111470;28;20024;-74
2023/07/13 09:18:59;;;;;;;15.68;9.07;;;;;;;-140.66;100.00;55571.53;5121398;28;20043;-74
2023/07/13 09:21:45;;;;;;;16.58;9.20;;;;;;;-140.66;100.00;55571.53;5122363;28;20032;-73
2023/07/13 09:24:46;;;;;;;16.30;9.80;;;;;;;-140.66;100.00;55571.53;5118873;28;20471;-73
2023/07/13 09:27:45;;;;;;;12.20;9.68;;;;;;;-140.66;100.00;55571.53;5118977;28;20032;-73
2023/07/13 09:30:46;;;;;;;10.52;8.73;;;;;;;-140.66;100.00;55571.53;5118563;28;20031;-74
2023/07/13 09:33:32;;;;;;;12.40;8.70;;;;;;;-140.66;100.00;55571.53;5104766;28;20096;-74
2023/07/13 09:36:25;;;;;;;15.75;9.73;;;;;;;-140.66;100.00;55571.53;5118519;28;20091;-75
2023/07/13 09:39:21;;;;;;;14.25;9.25;;;;;;;-140.66;100.00;55571.53;5102858;28;20024;-74
2023/07/13 09:42:13;;;;;;;11.13;9.57;;;;;;;-140.66;100.00;55571.53;5117109;28;20034;-74
2023/07/13 09:45:05;;;;;;;15.85;8.88;;;;;;;-140.66;100.00;55571.53;5119594;28;20039;-74
2023/07/13 09:47:59;;;;;;;18.10;9.35;;;;;;;-140.66;100.00;55571.53;5123599;28;20035;-74
2023/07/13 09:50:45;;;;;;;13.55;9.00;;;;;;;-140.66;100.00;55571.53;5119989;28;20028;-74
2023/07/13 09:53:31;;;;;;;11.02;9.00;;;;;;;-140.66;100.00;55571.53;5123658;28;20042;-74
2023/07/13 09:56:25;;;;;;;15.73;8.82;;;;;;;-140.66;100.00;55571.53;5117462;28;20028;-74
2023/07/13 09:59:23;;;;;;;15.52;9.43;;;;;;;-140.66;100.00;55571.53;5122164;28;20034;-73
2023/07/13 10:02:30;;;;;;;16.42;9.38;;;;;;;-140.66;100.00;55571.53;5103239;28;20408;-74
2023/07/13 10:05:16;;;;;;;11.43;8.48;;;;;;;-140.66;100.00;55571.53;5114702;28;20106;-74
2023/07/13 10:08:02;;;;;;;23.13;9.13;;;;;;;-140.66;100.00;55571.53;5114192;28;20352;-74
2023/07/13 10:10:55;;;;;;;13.40;9.00;;;;;;;-140.66;100.00;55571.53;5103798;28;20337;-74
2023/07/13 10:13:52;;;;;;;14.70;9.23;;;;;;;-140.66;100.00;55571.53;5118242;28;20031;-74
2023/07/13 10:16:43;;;;;;;15.13;8.25;;;;;;;-140.66;100.00;55571.53;5117515;28;20439;-75
2023/07/13 10:19:34;;;;;;;11.88;8.68;;;;;;;-140.66;100.00;55571.53;5108702;28;20052;-75
2023/07/13 10:22:25;;;;;;;15.70;8.88;;;;;;;-140.66;100.00;55571.53;5098189;28;20024;-74
2023/07/13 10:25:18;;;;;;;12.98;8.30;;;;;;;-140.66;100.00;55571.53;5084823;28;20028;-75
2023/07/13 10:28:32;;;;;;;14.70;9.30;;;;;;;-140.66;100.00;55571.53;5097947;28;20061;-73
2023/07/13 10:31:19;;;;;;;13.95;8.45;;;;;;;-140.66;100.00;55571.53;5081695;28;20028;-75
2023/07/13 10:34:08;;;;;;;16.73;8.52;;;;;;;-140.66;100.00;55571.53;5098766;28;20032;-74
2023/07/13 10:36:54;;;;;;;15.82;9.02;;;;;;;-140.66;100.00;55571.53;5099558;28;20107;-75
2023/07/13 10:39:40;;;;;;;17.80;8.57;;;;;;;-140.66;100.00;55571.53;5083762;28;20043;-75
2023/07/13 10:42:42;;;;;;;12.57;8.25;;;;;;;-140.66;100.00;55571.53;5097892;28;20127;-73
2023/07/13 10:45:31;;;;;;;15.18;8.27;;;;;;;-140.66;100.00;55571.53;5097545;28;20035;-74
2023/07/13 10:48:17;;;;;;;12.65;8.60;;;;;;;-140.66;100.00;55571.53;5097125;28;20090;-75
2023/07/13 10:51:06;;;;;;;10.27;8.50;;;;;;;-140.66;100.00;55571.53;5096417;28;20037;-74
2023/07/13 10:54:16;;;;;;;11.32;8.18;;;;;;;-140.66;100.00;55571.53;5096505;28;20028;-75
2023/07/13 10:57:22;;;;;;;14.73;8.25;;;;;;;-140.66;100.00;55571.53;5097396;28;20025;-74
2023/07/13 11:00:17;;;;;;;10.40;8.40;;;;;;;-140.66;100.00;55571.53;5097542;28;20360;-75
2023/07/13 11:03:04;;;;;;;13.65;8.50;;;;;;;-140.66;100.00;55571.53;5097839;28;20020;-74
2023/07/13 11:05:51;;;;;;;12.32;7.65;;;;;;;-140.66;100.00;55571.53;5096775;28;20107;-74
2023/07/13 11:08:52;;;;;;;17.42;8.43;;;;;;;-140.66;100.00;55571.53;5095823;28;20038;-74
2023/07/13 11:11:38;;;;;;;11.88;7.95;;;;;;;-140.66;100.00;55571.53;5099152;28;20365;-75
2023/07/13 11:14:35;;;;;;;16.63;8.32;;;;;;;-140.66;100.00;55571.53;5096670;28;20024;-74
2023/07/13 11:17:24;;;;;;;12.50;7.85;;;;;;;-140.66;100.00;55571.53;5097305;28;20482;-74
2023/07/13 11:20:13;;;;;;;17.00;7.85;;;;;;;-140.66;100.00;55571.53;5097192;28;20468;-75
2023/07/13 11:23:16;;;;;;;14.10;8.18;;;;;;;-140.66;100.00;55571.53;5118789;28;20436;-74
2023/07/13 11:26:02;;;;;;;16.90;7.75;;;;;;;-140.66;100.00;55571.53;5117666;28;20317;-74
2023/07/13 11:28:49;;;;;;;21.10;7.65;;;;;;;-140.66;100.00;55571.53;5136745;28;20039;-74
2023/07/13 11:31:35;;;;;;;11.88;7.13;;;;;;;-140.66;100.00;55571.53;5117184;28;20038;-75
2023/07/13 11:34:41;;;;;;;13.75;7.90;;;;;;;-140.66;100.00;55571.53;5117379;28;20027;-75
2023/07/13 11:37:29;;;;;;;18.17;7.70;;;;;;;-140.66;100.00;55571.53;5116239;28;20107;-75
2023/07/13 11:40:15;;;;;;;13.23;7.45;;;;;;;-140.66;100.00;55571.53;5115908;28;20035;-76
2023/07/13 11:43:02;;;;;;;13.70;7.30;;;;;;;-140.66;100.00;55571.53;5116227;28;20066;-74
2023/07/13 11:45:48;;;;;;;12.73;7.03;;;;;;;-140.66;100.00;55571.53;5117203;28;20031;-75
2023/07/13 11:48:34;;;;;;;8.15;6.55;;;;;;;-140.66;100.00;55571.53;5116462;28;20028;-75
2023/07/13 11:51:26;;;;;;;10.90;6.68;;;;;;;-140.66;100.00;55571.53;5117791;28;20092;-75
2023/07/13 11:54:33;;;;;;;9.32;6.97;;;;;;;-140.66;100.00;55571.53;5115803;28;20027;-75
2023/07/13 11:57:33;;;;;;;12.15;6.78;;;;;;;-140.66;100.00;55571.53;5115204;28;20031;-75
2023/07/13 12:00:23;;;;;;;11.88;7.28;;;;;;;-140.66;100.00;55571.53;5116068;28;20030;-74
2023/07/13 12:03:12;;;;;;;11.80;6.82;;;;;;;-140.66;100.00;55571.53;5114441;28;20076;-74
2023/07/13 12:06:20;;;;;;;12.15;6.75;;;;;;;-140.66;100.00;55571.53;5101757;28;20031;-75
2023/07/13 12:09:15;;;;;;;14.27;6.80;;;;;;;-140.66;100.00;55571.53;5100760;28;20070;-75
2023/07/13 12:12:01;;;;;;;12.50;7.00;;;;;;;-140.66;100.00;55571.53;5116172;28;20036;-75
2023/07/13 12:14:51;;;;;;;10.90;6.47;;;;;;;-140.66;100.00;55571.53;5115676;28;20027;-75
2023/07/13 12:17:37;;;;;;;17.20;6.38;;;;;;;-140.66;100.00;55571.53;5101333;28;20100;-75
2023/07/13 12:20:33;;;;;;;14.52;6.40;;;;;;;-140.66;100.00;55571.53;5115090;28;20452;-75
2023/07/13 12:23:30;;;;;;;13.02;6.50;;;;;;;-140.66;100.00;55571.53;5115419;28;20118;-75
2023/07/13 12:26:17;;;;;;;14.48;6.35;;;;;;;-140.66;100.00;55571.53;5115578;28;20033;-75
2023/07/13 12:29:06;;;;;;;16.05;6.90;;;;;;;-140.66;100.00;55571.53;5115661;28;20028;-75
2023/07/13 12:31:52;;;;;;;16.58;6.50;;;;;;;-140.66;100.00;55571.53;5114217;28;20337;-74